sensor_id;sensor_type;location;lat;lon;timestamp;P1;durP1;ratioP1;P2;durP2;ratioP2
49556;SDS011;35462;45.048;7.666;2022-11-25T00:00:06;20.38;;;14.50;;
49556;SDS011;35462;45.048;7.666;2022-11-25T00:15:26;25.15;;;15.45;;
49556;SDS011;35462;45.048;7.666;2022-11-25T00:30:42;20.58;;;14.20;;
49556;SDS011;35462;45.048;7.666;2022-11-25T00:45:58;11.90;;;8.70;;
49556;SDS011;35462;45.048;7.666;2022-11-25T01:01:17;13.52;;;9.60;;
49556;SDS011;35462;45.048;7.666;2022-11-25T01:16:33;17.30;;;11.00;;
49556;SDS011;35462;45.048;7.666;2022-11-25T01:31:49;17.42;;;10.50;;
49556;SDS011;35462;45.048;7.666;2022-11-25T01:47:12;15.53;;;9.80;;
49556;SDS011;35462;45.048;7.666;2022-11-25T02:02:33;16.20;;;11.05;;
49556;SDS011;35462;45.048;7.666;2022-11-25T02:17:49;14.98;;;10.20;;
49556;SDS011;35462;45.048;7.666;2022-11-25T02:33:05;14.95;;;10.48;;
49556;SDS011;35462;45.048;7.666;2022-11-25T02:48:21;14.20;;;10.30;;
49556;SDS011;35462;45.048;7.666;2022-11-25T03:03:38;15.45;;;10.23;;
49556;SDS011;35462;45.048;7.666;2022-11-25T03:18:55;16.52;;;11.00;;
49556;SDS011;35462;45.048;7.666;2022-11-25T03:34:11;18.02;;;10.65;;
49556;SDS011;35462;45.048;7.666;2022-11-25T03:49:27;15.43;;;10.10;;
49556;SDS011;35462;45.048;7.666;2022-11-25T04:04:43;18.38;;;10.10;;
49556;SDS011;35462;45.048;7.666;2022-11-25T04:19:59;16.02;;;8.68;;
49556;SDS011;35462;45.048;7.666;2022-11-25T04:35:17;11.40;;;8.60;;
49556;SDS011;35462;45.048;7.666;2022-11-25T05:05:58;13.43;;;8.17;;
49556;SDS011;35462;45.048;7.666;2022-11-25T05:21:15;12.02;;;7.90;;
49556;SDS011;35462;45.048;7.666;2022-11-25T05:36:33;12.80;;;8.65;;
49556;SDS011;35462;45.048;7.666;2022-11-25T05:51:49;13.55;;;8.75;;
49556;SDS011;35462;45.048;7.666;2022-11-25T06:07:07;10.05;;;7.00;;
49556;SDS011;35462;45.048;7.666;2022-11-25T06:22:23;14.55;;;9.10;;
49556;SDS011;35462;45.048;7.666;2022-11-25T06:37:39;14.05;;;7.97;;
49556;SDS011;35462;45.048;7.666;2022-11-25T06:52:56;8.57;;;6.72;;
49556;SDS011;35462;45.048;7.666;2022-11-25T07:41:21;11.50;;;7.45;;
49556;SDS011;35462;45.048;7.666;2022-11-25T07:56:39;11.05;;;8.18;;
49556;SDS011;35462;45.048;7.666;2022-11-25T08:11:57;14.43;;;8.88;;
49556;SDS011;35462;45.048;7.666;2022-11-25T08:27:13;13.48;;;10.02;;
49556;SDS011;35462;45.048;7.666;2022-11-25T08:42:28;12.25;;;8.52;;
49556;SDS011;35462;45.048;7.666;2022-11-25T08:57:44;18.00;;;10.10;;
49556;SDS011;35462;45.048;7.666;2022-11-25T09:13:00;16.10;;;11.00;;
49556;SDS011;35462;45.048;7.666;2022-11-25T09:28:18;23.88;;;12.98;;
49556;SDS011;35462;45.048;7.666;2022-11-25T09:59:26;24.80;;;14.27;;
49556;SDS011;35462;45.048;7.666;2022-11-25T10:14:48;20.88;;;15.57;;
49556;SDS011;35462;45.048;7.666;2022-11-25T10:45:36;24.08;;;16.73;;
49556;SDS011;35462;45.048;7.666;2022-11-25T11:01:14;25.90;;;18.65;;
49556;SDS011;35462;45.048;7.666;2022-11-25T11:16:34;24.85;;;18.35;;
49556;SDS011;35462;45.048;7.666;2022-11-25T11:31:56;28.48;;;18.40;;
49556;SDS011;35462;45.048;7.666;2022-11-25T11:47:20;26.27;;;18.58;;
49556;SDS011;35462;45.048;7.666;2022-11-25T12:33:51;25.63;;;19.60;;
49556;SDS011;35462;45.048;7.666;2022-11-25T12:49:16;26.67;;;20.05;;
49556;SDS011;35462;45.048;7.666;2022-11-25T13:04:38;26.80;;;19.10;;
49556;SDS011;35462;45.048;7.666;2022-11-25T13:35:52;25.52;;;18.50;;
49556;SDS011;35462;45.048;7.666;2022-11-25T13:51:17;22.40;;;15.97;;
49556;SDS011;35462;45.048;7.666;2022-11-25T14:37:32;26.10;;;17.58;;
49556;SDS011;35462;45.048;7.666;2022-11-25T14:53:06;27.67;;;19.67;;
49556;SDS011;35462;45.048;7.666;2022-11-25T15:08:24;28.77;;;20.40;;
49556;SDS011;35462;45.048;7.666;2022-11-25T15:23:41;26.05;;;20.27;;
49556;SDS011;35462;45.048;7.666;2022-11-25T15:54:30;28.50;;;19.65;;
49556;SDS011;35462;45.048;7.666;2022-11-25T16:09:53;30.63;;;21.17;;
49556;SDS011;35462;45.048;7.666;2022-11-25T16:25:09;29.98;;;21.60;;
49556;SDS011;35462;45.048;7.666;2022-11-25T16:40:26;31.58;;;21.35;;
49556;SDS011;35462;45.048;7.666;2022-11-25T16:55:45;29.50;;;22.15;;
49556;SDS011;35462;45.048;7.666;2022-11-25T17:11:01;28.70;;;22.95;;
49556;SDS011;35462;45.048;7.666;2022-11-25T17:26:19;34.08;;;24.52;;
49556;SDS011;35462;45.048;7.666;2022-11-25T17:41:42;36.03;;;24.20;;
49556;SDS011;35462;45.048;7.666;2022-11-25T17:57:02;33.83;;;22.45;;
49556;SDS011;35462;45.048;7.666;2022-11-25T18:12:22;34.50;;;22.87;;
49556;SDS011;35462;45.048;7.666;2022-11-25T18:27:43;30.05;;;22.95;;
49556;SDS011;35462;45.048;7.666;2022-11-25T18:42:59;36.45;;;25.10;;
49556;SDS011;35462;45.048;7.666;2022-11-25T18:58:20;34.50;;;23.58;;
49556;SDS011;35462;45.048;7.666;2022-11-25T19:13:38;39.60;;;22.60;;
49556;SDS011;35462;45.048;7.666;2022-11-25T19:28:59;34.97;;;23.70;;
49556;SDS011;35462;45.048;7.666;2022-11-25T19:44:18;29.48;;;23.25;;
49556;SDS011;35462;45.048;7.666;2022-11-25T19:59:34;34.10;;;24.63;;
49556;SDS011;35462;45.048;7.666;2022-11-25T20:14:50;43.42;;;28.50;;
49556;SDS011;35462;45.048;7.666;2022-11-25T20:45:38;38.55;;;27.08;;
49556;SDS011;35462;45.048;7.666;2022-11-25T21:00:56;41.50;;;28.52;;
49556;SDS011;35462;45.048;7.666;2022-11-25T21:16:13;40.47;;;27.75;;
49556;SDS011;35462;45.048;7.666;2022-11-25T21:31:29;44.00;;;30.00;;
49556;SDS011;35462;45.048;7.666;2022-11-25T21:46:44;41.20;;;30.20;;
49556;SDS011;35462;45.048;7.666;2022-11-25T22:02:00;43.67;;;27.95;;
49556;SDS011;35462;45.048;7.666;2022-11-25T22:17:16;40.50;;;28.80;;
49556;SDS011;35462;45.048;7.666;2022-11-25T22:32:32;46.17;;;29.85;;
49556;SDS011;35462;45.048;7.666;2022-11-25T22:47:48;43.47;;;29.17;;
49556;SDS011;35462;45.048;7.666;2022-11-25T23:03:05;43.47;;;29.20;;
49556;SDS011;35462;45.048;7.666;2022-11-25T23:18:24;40.42;;;29.33;;
49556;SDS011;35462;45.048;7.666;2022-11-25T23:33:45;43.53;;;30.50;;
49556;SDS011;35462;45.048;7.666;2022-11-25T23:49:02;43.27;;;29.03;;
